الصفحة الرئيسية
METAR-TAF:

METAR-TAF

مطار :

بنوم بنه, كمبوديا

دائرة عرض: 11-33N, خط طول: 104-51E, ارتفاع: 10 متر

مراقبة الطقس الحالي

تاريخ ووقت الإصدار 32 دقيقة قبل الساعة 20:30UTC
ريح 6 عقدة من الجنوب
درجة الحرارة 26°درجة مئوية
الرطوبة 84%
ضغط 1005 hPa
الرؤية: 9000 متر
غيوم متفرقة على ارتفاع 1500 قدم
غيوم مفككة على ارتفاع 4000 قدم

METAR: VDPP 022030Z 19006KT 9000 SCT015 BKN040 26/23 Q1005

زمن: 04:02 (21:02 UTC)

توقعات

تاريخ ووقت الإصدار 4ساعات و 2 دقيقة قبل الساعة 17:00UTC
التوقعات صالحة من02 الساعة 18 UTC إلى 03 الساعة 12 UTC
ريح 7 عقدة من الجنوب/الجنوب الغربي
الرؤية 10 كم أو أكثر
غيوم متفرقة على ارتفاع 1700 قدم
غيوم متفرقة على ارتفاع 4000 قدم

TAF: VDPP 021700Z 0218/0312 21007KT 9999 SCT017 SCT040

أرصاد الطقس والتوقعات من أكثر من 4000 مطار (تقارير الطقس للمطار METAR والتنبؤ بالطقس بالمطارTAF).

المحطات المتاحة هي النقط الصفراء والحمراء على الخريطة.

حرك المؤشر فوق النقطة لمعرفة اسم المحطة.

ثم انقر لمعرفة أرصاد وتوقعات الطقس.

لتغيير الخارطة: اضغط على الأزرار الخضراء مع رمز الصليب الأسود للتكبير. على الزر الأخضر مع شرطة للتصغير، أو على الأسهم الخضراء للخرائط المجاورة.


METAR-TAF: